Mercedes-Benz Corporate Run

Downtown Miami: Bayfront Park

Start of The Race - Miami - MBCR2017

2017 Miami Individual Results

Search for a specific name below

Clear Search
Bib Number Name Team Name Gender Overall Place Gender Place Chip Time
1016 Raymond Tejera 300 Engineering Group Male 1158 955 0:26:11
1005 Omar Herrera 300 Engineering Group Male 1370 1113 0:26:46
1007 Jonathan Moreno Barbosa 300 Engineering Group Male 1865 1495 0:27:51
1004 Luis Guinan 300 Engineering Group Male 1890 1514 0:27:54
1001 Stanley David 300 Engineering Group Male 1928 1543 0:27:59
1002 Armando Godoy Aguilar 300 Engineering Group Male 2505 1960 0:29:12
1011 Andres Rivera 300 Engineering Group Male 2507 1961 0:29:12
1018 Sarai Torrealba 300 Engineering Group Female 2697 601 0:29:32
1010 Rodolfo Remon 300 Engineering Group Male 3616 2698 0:31:04
1006 Andres Mcewen 300 Engineering Group Male 5056 3562 0:33:36
1014 Daviana Sanchez Peraza 300 Engineering Group Female 9438 3636 0:41:49
1019 Dolenny Varela 300 Engineering Group Female 9703 3788 0:42:27
1013 Angel Sanchez 300 Engineering Group Male 9825 5947 0:42:41
1000 Steve Blain 300 Engineering Group Male 11306 6572 0:46:51
1008 Ileana Mirabal 300 Engineering Group Female 11835 5028 0:48:31
1015 Jose Stempel 300 Engineering Group Male 11873 6808 0:48:37
20003 Juan Pallares 300 Engineering Group Male 11883 6810 0:48:40
20005 Cary Smith 300 Engineering Group Male 16972 8371 1:07:05
20002 Pedro Gonzalez 300 Engineering Group Male 16985 8373 1:07:07
20001 Ana Dvorak 300 Engineering Group Female 16986 8593 1:07:08
20004 Sonia Ramos 300 Engineering Group Male 16991 8375 1:07:10
20006 Aracelis Urieta 300 Engineering Group Female 17843 9193 1:11:52
1021 Octavio Casado 3Z Male 2469 1935 0:29:06
1027 Bryan Morales 3Z Male 5585 3861 0:34:26
1029 Christian Ramos 3Z Male 5883 4027 0:34:53
1 Enzo Dalmazzo 3Z Male 6428 4308 0:35:53
1031 Frank Tolentino 3Z Male 9145 5663 0:41:10
20013 Joey Villamil 3Z Male 9253 5708 0:41:22
20010 Gisselle Rodriguez 3Z Female 9302 3562 0:41:28
20012 Jean Sotomayor 3Z Male 13820 7455 0:55:11
1036 Gabriel Sinopoli 4Finance Male 3138 2383 0:30:18
1033 Eduardo Beracha 4Finance Male 5963 4064 0:35:02
1034 Salome Hiller 4Finance Female 7522 2621 0:37:56
1035 Vania Ramirez 4Finance Female 15652 7626 1:01:41
20016 Ayana Posadas 4Finance Female 16077 7942 1:03:24
20014 Gustavo Alvarez 4Finance Male 16083 8118 1:03:26
20015 Andres Reyes 4Finance Male 16094 8125 1:03:29
1048 Allen Irizarry A Customs Brokerage Male 2219 1759 0:28:36
1049 Luis Lazo A Customs Brokerage Male 2536 1979 0:29:15
1040 Leyda Aleman A Customs Brokerage Female 2555 557 0:29:16
1042 Christopher Cantwell A Customs Brokerage Male 2752 2126 0:29:38
1050 Austin Lazo A Customs Brokerage Male 4159 3034 0:31:58
1052 Jonathan Marotto A Customs Brokerage Male 9243 5702 0:41:21
20032 Christian Milian A Customs Brokerage Male 10660 6320 0:44:51
1054 Sandra Osorio A Customs Brokerage Female 10776 4392 0:45:10
1051 John Lebold A Customs Brokerage Male 11897 6815 0:48:43
20033 Lily Mundo A Customs Brokerage Female 13193 5925 0:53:11
20025 Marcela Garcia A Customs Brokerage Female 13223 5944 0:53:16
1045 Claudia Garcia A Customs Brokerage Female 13554 6169 0:54:22
20022 Maria De Gannes A Customs Brokerage Female 15248 7329 1:00:07
20030 Maria Jimenez A Customs Brokerage Female 15730 7686 1:02:00
1047 Rafael Gutierrez A Customs Brokerage Male 16165 8159 1:03:45
1053 George Nunez A Customs Brokerage Male 16169 8160 1:03:46
1037 Alyssa Aguad A Customs Brokerage Female 16179 7999 1:03:48
20037 Maria Tapia A Customs Brokerage Female 17984 9295 1:13:11
20035 Fernando Rodriguez A Customs Brokerage Male 17985 8670 1:13:11
20028 Victor Gomez A Customs Brokerage Male 18226 8733 1:16:28
20024 Jessica Fernandez A Customs Brokerage Female 18227 9474 1:16:29
20026 Victor Gomez A Customs Brokerage Male 18228 8734 1:16:30
20036 Eliana Saavedra A Customs Brokerage Female 18229 9475 1:16:32
20027 Maria Gomez A Customs Brokerage Female 18230 9476 1:16:33
1041 Edgard Amaya A Customs Brokerage Male 18265 8746 1:17:18
20038 Luis Tortoledo A Customs Brokerage Male 18269 8748 1:17:22
17808 Jaime Castillo A&P Consulting Transportation Engineers Male 413 367 0:23:28
17834 Erik Sibila A&P Consulting Transportation Engineers Male 642 552 0:24:29
17802 Adrian Alfonso A&P Consulting Transportation Engineers Male 749 639 0:24:57
17821 Jose Perera A&P Consulting Transportation Engineers Male 1479 1202 0:27:00
17815 Josue Menendez A&P Consulting Transportation Engineers Male 1617 1311 0:27:18
17836 Christopher Soto A&P Consulting Transportation Engineers Male 2238 1772 0:28:38
17812 Kamil Gil A&P Consulting Transportation Engineers Female 2362 494 0:28:53
17830 Mario Rojas A&P Consulting Transportation Engineers Male 2436 1912 0:29:02
17816 Alex Milz A&P Consulting Transportation Engineers Male 2733 2113 0:29:36
30457 Raul Garcia A&P Consulting Transportation Engineers Male 2780 2150 0:29:42
17832 Lucas Rovira A&P Consulting Transportation Engineers Male 3614 2697 0:31:04
17826 Edna Pertuz A&P Consulting Transportation Engineers Female 3633 918 0:31:06
17831 Jans Rovira A&P Consulting Transportation Engineers Male 3730 2770 0:31:16
17807 Mauricio Castillo A&P Consulting Transportation Engineers Male 4116 3004 0:31:53
17803 Arnelio Alfonso A&P Consulting Transportation Engineers Male 4433 3193 0:32:27
17819 Joseph Muniz A&P Consulting Transportation Engineers Male 5391 3753 0:34:10
17833 Maria Sanchez A&P Consulting Transportation Engineers Female 5586 1716 0:34:27
17800 Yuriel Addine A&P Consulting Transportation Engineers Male 5728 3944 0:34:39
17814 Roberto Lamazares A&P Consulting Transportation Engineers Male 5928 4047 0:34:59
17806 Jennifer Arniella A&P Consulting Transportation Engineers Female 6017 1912 0:35:08
17828 Ariel Rivero A&P Consulting Transportation Engineers Male 6614 4410 0:36:15
17835 Nathalie Silvera A&P Consulting Transportation Engineers Female 6871 2317 0:36:43
17809 Darlenis Enriquez A&P Consulting Transportation Engineers Female 6897 2330 0:36:45
17818 Ellie Muniz A&P Consulting Transportation Engineers Female 7481 2595 0:37:53
17804 German Alonso A&P Consulting Transportation Engineers Male 8721 5468 0:40:17
17805 Maria Alonso A&P Consulting Transportation Engineers Female 8742 3259 0:40:19
17820 Osvaldo Perdomo A&P Consulting Transportation Engineers Male 9658 5886 0:42:20
17817 Juan Muniz A&P Consulting Transportation Engineers Male 9908 5989 0:42:54
30454 Magali Alfonso A&P Consulting Transportation Engineers Female 10452 4207 0:44:19
30462 Victoria Perera A&P Consulting Transportation Engineers Female 10482 4225 0:44:23
30466 Eithel Sierra A&P Consulting Transportation Engineers Male 11113 6496 0:46:08
17823 Amanda Perez A&P Consulting Transportation Engineers Female 13164 5905 0:53:06
17827 Dima Poe A&P Consulting Transportation Engineers Female 13311 6008 0:53:32
30468 Angela Baron A&P Consulting Transportation Engineers Female 16160 7985 1:03:43
30453 Lourdes Acosta A&P Consulting Transportation Engineers Female 17636 9056 1:10:20
17822 Jason Perez A&P Consulting Transportation Engineers Male 17649 8561 1:10:24
1058 Alejandro Gari A.D.A. Engineering Male 1756 1411 0:27:37
1060 Carlos Ortega A.D.A. Engineering Male 5455 3792 0:34:16
1059 Cesar Lugo A.D.A. Engineering Male 5469 3798 0:34:17
1057 Albert Argudin A.D.A. Engineering Male 5716 3938 0:34:38
1061 Waddie Ruiz A.D.A. Engineering Male 6178 4173 0:35:26
20045 Adrian Burleigh A.D.A. Engineering Male 13856 7468 0:55:17
20047 Olga Casadevall A.D.A. Engineering Female 15249 7330 1:00:07
20048 Ivonne Villarreal A.D.A. Engineering Female 15255 7334 1:00:08
20044 Ivette Argudin A.D.A. Engineering Female 15709 7671 1:01:57
20043 Alberto Argudin A.D.A. Engineering Male 15719 8023 1:01:59
1062 Vamsee Tirunagari A.D.A. Engineering Male 16251 8175 1:04:02
1063 Dong Wang A.D.A. Engineering Male 16299 8184 1:04:14
20046 Cairo Cangas A.D.A. Engineering Male 16302 8186 1:04:15
1106 John Lenahan AB BERNSTEIN Male 3095 2355 0:30:15
1107 Benjamin Moscowicz AB BERNSTEIN Male 3900 2882 0:31:32
1102 Gonzalo Acevedo AB BERNSTEIN Male 12017 6844 0:49:06
20074 Eric Gonzalez Academica Male 6247 4208 0:35:34
1112 Claudia Dominguez Academica Female 11907 5075 0:48:45
1118 Joseph Vargas Academica Male 14688 7739 0:58:01
20070 Kathryn Cruz Academica Female 14776 6994 0:58:15
20073 Nataly Gonzalez Academica Female 14777 6995 0:58:15
20072 Maria De La Teja Academica Female 16304 8098 1:04:15
1109 Brittany Belletiere Academica Female 16319 8108 1:04:18
1114 Isabella Kayat Academica Female 16409 8163 1:04:39
20075 Adriana Martinez Academica Female 16419 8170 1:04:41
20066 Amanda Abreu Academica Female 17564 9008 1:09:55
1117 Christina Perdomo-Fernandez Academica Female 17650 9069 1:10:25
20067 Janelle Acosta Academica Female 17655 9072 1:10:26
20076 Matthew Padron Academica Male 17659 8564 1:10:27
20078 Cristina Rivero Academica Female 17664 9079 1:10:29
1130 Brian Stewart ACAMS Male 1554 1258 0:27:09
1121 Gregory Fields ACAMS Male 1679 1356 0:27:26
1124 Juan Lopez ACAMS Male 2479 1942 0:29:08
1125 Donald Uhlmann ACAMS Male 2930 2249 0:29:58
1120 Yuri Caballero ACAMS Male 4958 3503 0:33:26
1131 Ryan Walsh ACAMS Male 5707 3932 0:34:37
1126 Ingrid Onate ACAMS Female 6734 2246 0:36:27
1128 Joyce Sarmiento ACAMS Female 10146 4034 0:43:28
1122 Scarlet Fuentes ACAMS Female 14396 6716 0:57:08
1123 Alexa Llosa ACAMS Female 14398 6717 0:57:08
20087 Richard Guajardo ACAMS Male 15346 7924 1:00:28
20093 Gabriel Perez ACAMS Male 15360 7927 1:00:32
20083 Nicole Ackerman ACAMS Female 15370 7420 1:00:34
20089 Giovanna Llano ACAMS Female 15390 7436 1:00:38
20084 Iliana Colon ACAMS Female 15394 7437 1:00:39
20088 Andres Martinez ACAMS Male 16665 8285 1:05:47
20095 Carolina Ulloa ACAMS Female 16666 8361 1:05:47
20085 Zuley Cortes ACAMS Female 18103 9391 1:14:42
1139 Jamarisa Williams Acceleration Female 2122 424 0:28:25
1135 Michael Hospedales Acceleration Male 7505 4886 0:37:55
1137 Holly Robb Acceleration Female 7655 2690 0:38:10
1136 Kristina Muller Acceleration Female 9945 3922 0:42:58
20098 Jurrol Elliott Acceleration Male 9953 6013 0:42:58
1138 Jermaine Rowe Acceleration Male 10890 6403 0:45:30
20102 Bryan Robles Acceleration Male 13151 7238 0:53:03
20100 Frances M Lacuesta Daley Acceleration Female 15373 7423 1:00:35
20105 Bridget Williams Acceleration Female 15374 7424 1:00:35
1132 Tatiana Cohen Acceleration Female 15386 7433 1:00:37
1140 Karthikeyan Arunachalam Accenture Male 2843 2191 0:29:49
1148 Carlos Materon Accenture Male 2950 2260 0:30:00
1145 Sean Donald Accenture Male 6977 4603 0:36:54
1143 Bianca Beadling Accenture Female 7503 2607 0:37:55
1151 Chantel Soverall Accenture Female 7796 2756 0:38:25
1142 James Beadling Accenture Male 8257 5254 0:39:20
1144 Ritu Dhingra Accenture Female 8842 3316 0:40:31
20108 Rituraj Srivastava Accenture Male 10350 6189 0:43:59
1146 Richar Martin Accenture Male 10355 6192 0:44:00
1147 Serge Mass Accenture Male 14225 7600 0:56:35
1160 Alejandro Villegas Actualidad Media Group Male 2579 2006 0:29:19
1157 Cinthya Rios Actualidad Media Group Female 2735 615 0:29:36
1155 Vicente Pasarielo Actualidad Media Group Male 4383 3163 0:32:21
1152 Anibal Camus Actualidad Media Group Male 6063 4118 0:35:13
1156 Daniel Ramirez Ramirez Actualidad Media Group Male 7056 4648 0:37:03
20109 Jesus Carreno Actualidad Media Group Male 8394 5311 0:39:38
20124 Juan Carlos Rojas Actualidad Media Group Male 8396 5313 0:39:38
20115 Demi Lopez Actualidad Media Group Female 10504 4240 0:44:27
20112 Yelena Grillet Actualidad Media Group Female 15379 7429 1:00:36
4 Jose Sperman Adistec Corp Male 564 487 0:24:07
1174 Faridt Londono Adistec Corp Male 1023 846 0:25:47
1177 Dario Pariente Adistec Corp Male 1528 1239 0:27:07
1164 Alejandro Canizares Adistec Corp Male 1595 1291 0:27:15
1171 Alfredo Galdos Adistec Corp Male 2742 2118 0:29:37
1162 Gabriel Artiles Adistec Corp Male 2902 2230 0:29:55
1165 Lucrecia Carreras Adistec Corp Female 3695 941 0:31:12
1176 Guillermo Musgrove Adistec Corp Male 4149 3028 0:31:57
1175 Yoerlys Machado Adistec Corp Male 5029 3542 0:33:33
1179 Queberth Soto Adistec Corp Male 6159 4163 0:35:25
1170 Hans Fermin Adistec Corp Male 6607 4406 0:36:14
1173 Marcelo Gardelin Adistec Corp Male 6850 4538 0:36:39
1166 Javier Casserly Adistec Corp Male 8844 5515 0:40:31
10433 Harold Cuello Adistec Corp Male 9057 5622 0:40:58
1161 Ana Acosta Adistec Corp Female 9214 3515 0:41:18
20146 Fernando Pascual Adistec Corp Male 9733 5916 0:42:31
20140 Wendy Cruz Adistec Corp Female 9879 3889 0:42:49
1169 Gustavo Dipilla Adistec Corp Male 10147 6100 0:43:28
20134 Doris Cantelmi Adistec Corp Female 10717 4356 0:44:59
20143 Marena Munoz Adistec Corp Female 10728 4364 0:45:01
20144 Silvia Ospina Osio Adistec Corp Female 10736 4368 0:45:03
20142 Bibiana Mayorga Adistec Corp Female 10750 4376 0:45:05
20135 Dinah Carrion Adistec Corp Female 10759 4383 0:45:06
1168 Marcos De la paz Adistec Corp Male 11057 6473 0:45:58
1167 Monica Cortes Paez Adistec Corp Female 11452 4803 0:47:19
20138 Gabriela Ferrer Adistec Corp Female 12513 5464 0:50:47
20132 Andrea Barreto Adistec Corp Female 12540 5482 0:50:50
20148 Diana Reales Adistec Corp Female 12560 5493 0:50:54
20057 Dave Villalta Adistec Corp Male 13309 7286 0:53:32
20147 Maria Alejandra Ramirez Adistec Corp Female 13906 6405 0:55:26
1178 Leonardo Rusinque Adistec Corp Male 13910 7484 0:55:26
1163 Giovanni Calderon Adistec Corp Male 13920 7486 0:55:27
20149 Micaela Saccone Adistec Corp Female 15054 7190 0:59:19
20129 Susana Acosta Adistec Corp Female 15166 7270 0:59:48
20139 Arnulfo Franco Adistec Corp Male 15207 7889 0:59:59
20151 Karlo Suasnavar Adistec Corp Male 17129 8420 1:07:39
20137 Guillermo Cusnaider Adistec Corp Male 17973 8668 1:13:05
20141 Luis Malchansky Adistec Corp Male 17975 8669 1:13:05
1186 Miguel Calero ADP Male 200 184 0:22:04
1197 Lucas Ordonez ADP Male 849 715 0:25:17
1184 Eduardo Borja ADP Male 1171 965 0:26:13
1200 Juan Ramirez ADP Male 1398 1137 0:26:49
20190 Michelle Supple ADP Female 1997 392 0:28:08
20167 Maria Kneipple ADP Female 2038 404 0:28:14
1206 Robert Rucky ADP Male 2098 1672 0:28:23
1203 Kriselle Rodriguez ADP Female 2253 465 0:28:40
1182 Ricardo Baquero ADP Male 4268 3097 0:32:09
1205 Vanessa Rucky ADP Female 4396 1217 0:32:23
1199 Nicole Perez De Utrera ADP Female 4629 1300 0:32:51
1204 Robert Rodriguez ADP Male 5775 3967 0:34:43
1209 Oliver Wolfe ADP Male 6065 4120 0:35:13
1192 Kay Lucas ADP Female 6111 1960 0:35:18
1207 Sonia Vassell ADP Female 7341 2533 0:37:36
20175 Monica Miranda ADP Female 7884 2805 0:38:36
1181 Felipe Adams ADP Male 8160 5206 0:39:07
1201 Jorge Ramos ADP Male 8166 5209 0:39:08
20163 Julia Dominguez ADP Female 9274 3548 0:41:25
20195 Aliyah Williams ADP Female 9381 3602 0:41:40
1194 Denise Miller ADP Female 9928 3913 0:42:57
20185 Christine Romero ADP Female 10439 4199 0:44:17
20156 Vanessa Bejerano ADP Female 10547 4268 0:44:32
20173 Julian Matiz ADP Male 11371 6602 0:47:05
20169 Robert Lyn ADP Male 11860 6802 0:48:35
1188 Yvette Cohen ADP Female 12243 5303 0:49:50
20153 Erika Alpiste ADP Female 13666 6245 0:54:43
20168 Allen Lee ADP Male 14376 7654 0:57:02
20170 Caroline Madera ADP Female 14525 6806 0:57:31
1195 S. Camirra Moss ADP Female 14881 7072 0:58:35
20160 Sharifa Crichton ADP Female 14943 7112 0:58:48
20166 Yazbeth Galego ADP Female 15037 7178 0:59:15
20155 Silvia Batan ADP Female 15620 7601 1:01:30
20183 Leslie Reyes ADP Female 15704 7667 1:01:53
20182 Emily Ramos ADP Female 15714 7674 1:01:58
1183 Gabriela Beltran-Clark ADP Female 17013 8612 1:07:16
20164 Natalia Duque ADP Female 17293 8817 1:08:22
20159 Mary Choban ADP Female 17763 9145 1:11:15
20158 Andrew Choban ADP Male 17772 8602 1:11:21
20193 Kristina Varona ADP Female 17791 9161 1:11:26
1214 Tyrone Manning Adrienne Arsht Center Male 1518 1230 0:27:06
1213 Jose Hurtado Adrienne Arsht Center Male 1896 1520 0:27:55
1216 Fabiana Parra Adrienne Arsht Center Female 2684 594 0:29:30
1218 Alberto Vega Adrienne Arsht Center Male 7089 4662 0:37:06
1212 Jack Crespo Adrienne Arsht Center Male 8214 5234 0:39:13
1217 Carmen Rodriguez Adrienne Arsht Center Female 8348 3042 0:39:31
1215 Christine Montano Adrienne Arsht Center Female 11202 4656 0:46:29
20197 Nicole Rodriguez Adrienne Arsht Center Female 15153 7261 0:59:44
20196 Grace Padron Adrienne Arsht Center Female 15168 7272 0:59:49
1221 Andres Arias AECOM Male 495 431 0:23:49
1251 Veronica Llaneza AECOM Female 698 99 0:24:44
1241 Andres Gomez Bonvecchio AECOM Male 847 713 0:25:17
1229 Brad Chalker AECOM Male 912 763 0:25:29
1255 Aida Lora AECOM Female 1024 174 0:25:47
1256 Julio Lostao AECOM Male 1073 890 0:25:56
1239 Richard Garcia AECOM Male 1125 930 0:26:05
1273 Vincent Ruddy AECOM Male 2013 1612 0:28:11
1272 Nancy Rosenblatt AECOM Female 2564 559 0:29:17
1252 Carlos Lopez AECOM Male 2774 2145 0:29:41
1270 Maria Rivera AECOM Female 3094 733 0:30:15
1231 Hongbo Chi AECOM Male 3123 2372 0:30:17
1253 Diana Lopez AECOM Female 3368 817 0:30:42
1269 Jaahmal Riley AECOM Male 3550 2654 0:30:58
1233 Codie Cotton AECOM Male 3640 2713 0:31:06
1246 Sara Jimenez AECOM Female 3705 944 0:31:13
1222 Joaquin Barnes AECOM Male 3714 2762 0:31:14
1257 William Lovins AECOM Male 3857 2853 0:31:29
20220 Alejandro Hoch AECOM Male 4240 3078 0:32:06
1223 Soren Barraza AECOM Male 4347 3145 0:32:17
1263 Jorge Pagan Reyes AECOM Male 4582 3293 0:32:46
1245 Sergio Hoyos AECOM Male 4918 3483 0:33:23
1280 Maria Trueba AECOM Female 4936 1436 0:33:24
1230 Laura Cherney AECOM Female 4952 1444 0:33:26
1262 Bayoan Ortiz-Rios AECOM Male 4969 3511 0:33:27
1274 Doug Rush AECOM Male 5289 3701 0:33:59
1279 Pavel Terselich AECOM Male 5370 3742 0:34:07
1220 Indalecio Nunez AECOM Male 5591 3865 0:34:27
1258 David Mairena AECOM Male 5750 3955 0:34:41
20208 Lance Moore AECOM Male 6719 4471 0:36:26
1250 Deborah Klem AECOM Female 6847 2301 0:36:39
1277 Joel Slater AECOM Male 6927 4574 0:36:48
1254 Catalina Lopez V AECOM Female 7148 2446 0:37:13
1248 Michael Kerwin AECOM Male 7176 4708 0:37:17
20202 Danica Byam AECOM Female 7185 2459 0:37:18
1281 Xiaoran Chen AECOM Male 7784 5023 0:38:23
1264 Kiara Pazan AECOM Female 8215 2969 0:39:14
1276 James Popham AECOM Male 8311 5281 0:39:27
1268 Guillermo Regalado AECOM Male 8469 5341 0:39:47
1247 Ebony Godfrey AECOM Female 8635 3204 0:40:06
1267 Eva Popham AECOM Female 8714 3239 0:40:16
1249 Yi Jiang AECOM Female 8736 3254 0:40:18
1227 Chris Campbell AECOM Male 8989 5588 0:40:51
1226 Jason Bryant AECOM Male 9297 5726 0:41:28
1240 Peter Germain AECOM Male 9304 5729 0:41:28
20200 Andrew Alvarez AECOM Male 9325 5739 0:41:33
1235 Edgar Diaz AECOM Male 9648 5883 0:42:18
1236 Paula Echeverry AECOM Female 10089 4000 0:43:18
20217 Ruben Hung AECOM Male 10595 6289 0:44:38
1265 Magali Peniche AECOM Female 10632 4316 0:44:46
1261 Victoria Mims AECOM Female 10663 4329 0:44:51
1259 Dee Mctague AECOM Female 11042 4563 0:45:57
1237 Gladys Estevez Labori AECOM Female 11229 4672 0:46:35
20226 Lorraine Veltri AECOM Female 11491 4824 0:47:25
20222 Midori Shim AECOM Female 12238 5299 0:49:48
1228 Ernest Cano AECOM Male 12632 7085 0:51:09
1275 Olguita Sabagh-Karam AECOM Female 12782 5638 0:51:36
1242 Jorge Gonzalez AECOM Male 12783 7128 0:51:36
20225 Mihaela Tomulescu AECOM Female 13135 5888 0:52:58
20212 Jenn King AECOM Female 13232 5949 0:53:18
20213 Don King AECOM Male 13249 7269 0:53:21
1244 Kifara Haul AECOM Female 13611 6210 0:54:33
1266 Huy Pham AECOM Male 14006 7519 0:55:45
20215 Kimberly Meichtry AECOM Female 14011 6473 0:55:47
1238 Melba Fernandez AECOM Female 14039 6490 0:55:52
20205 Cynthia Doyon AECOM Female 14043 6493 0:55:53
20206 Scott Eckler AECOM Male 14070 7540 0:56:01
1234 Carolina De La Hoz AECOM Female 14838 7038 0:58:26
20224 Lauren Swan AECOM Female 15991 7883 1:03:02
20198 Mark Abbott AECOM Male 15998 8091 1:03:03
20209 Pedro Hernandez AECOM Male 17581 8542 1:09:58
20216 James Netterwald AECOM Male 17595 8547 1:10:01
20210 Filbert Ip AECOM Male 17898 8642 1:12:16
20207 Catherine Goncalves AECOM Female 17899 9237 1:12:17
20204 Andres Diaz AECOM Male 17902 8644 1:12:18
20201 Jorge Bonsenor AECOM Male 17906 8645 1:12:19
20199 Danny Aguiar AECOM Male 17907 8646 1:12:19
1232 Greg Salesses AECOM Male 18515 8824 2:04:14
1290 Valdemar Suarez AeroKool Aviation Corporation Male 1045 865 0:25:51
1289 Alex Solis AeroKool Aviation Corporation Male 2673 2074 0:29:29
20228 Neil Chinyou AeroKool Aviation Corporation Male 5784 3974 0:34:43
1287 Freddy Gutierrez AeroKool Aviation Corporation Male 5840 4002 0:34:49
1072 Jennifer Giordano AeroKool Aviation Corporation Female 6630 2201 0:36:16
1292 Tom Wolfe AeroKool Aviation Corporation Male 6662 4436 0:36:20
1291 Artie Vizcaino AeroKool Aviation Corporation Male 8465 5340 0:39:46
1283 Ariel Beitia AeroKool Aviation Corporation Male 14092 7552 0:56:06
20231 Kricia Trujillo AeroKool Aviation Corporation Female 14097 6526 0:56:08
1288 Jeannie Moreno AeroKool Aviation Corporation Female 14098 6527 0:56:08
1284 Christopher Burton AeroKool Aviation Corporation Male 14101 7554 0:56:09
20229 Anthony Cruz AeroKool Aviation Corporation Male 14107 7558 0:56:11
20065 Jonathan Silva AeroKool Aviation Corporation Male 14111 7559 0:56:11
20227 David Alston AeroKool Aviation Corporation Male 17492 8513 1:09:27
1302 Jaziel Cueto AerSale/XTRA Airways Male 1196 985 0:26:18
1320 Erik Nilsson AerSale/XTRA Airways Male 1442 1172 0:26:56
1321 Roberto Palacio AerSale/XTRA Airways Male 1665 1345 0:27:24
1328 Scott Stewart AerSale/XTRA Airways Male 2050 1638 0:28:16
1326 Kadeem Samuel AerSale/XTRA Airways Male 2915 2238 0:29:56
1294 Edwin Alfaro AerSale/XTRA Airways Male 3030 2311 0:30:09
1308 Ronny Gonzalez AerSale/XTRA Airways Male 3392 2562 0:30:45
5 Robert Nichols AerSale/XTRA Airways Male 3461 2599 0:30:50
1325 Mauricio Sampaio AerSale/XTRA Airways Male 3660 2727 0:31:08
1304 Carlos Dubon AerSale/XTRA Airways Male 4373 3157 0:32:20
1330 Ivan Torres AerSale/XTRA Airways Male 4649 3333 0:32:54
1318 Carlos Montilla AerSale/XTRA Airways Male 4811 3421 0:33:12
1322 Enrique Pizzi AerSale/XTRA Airways Male 5324 3719 0:34:02
1312 Sam Hopkins AerSale/XTRA Airways Male 5400 3758 0:34:10
1317 Deborah Mayorga AerSale/XTRA Airways Female 6069 1937 0:35:14
1329 Kirsten Stinson AerSale/XTRA Airways Female 6073 1940 0:35:14
1309 Michael Hackert AerSale/XTRA Airways Male 6421 4304 0:35:53
1307 Julio Giron AerSale/XTRA Airways Male 6687 4447 0:36:23
1310 Brian Haggenmiller AerSale/XTRA Airways Male 6953 4588 0:36:50
20235 Marisa Aquino AerSale/XTRA Airways Female 7242 2485 0:37:24
1313 Luis Laguna AerSale/XTRA Airways Male 7294 4770 0:37:30
1319 Lyndelle Nieuwkerk AerSale/XTRA Airways Female 7456 2583 0:37:49
5005 Matthew Taylor AerSale/XTRA Airways Male 8073 5163 0:38:56
1311 Kevin Hill AerSale/XTRA Airways Male 8159 5205 0:39:07
1306 Jessica Genao AerSale/XTRA Airways Female 9078 3435 0:41:02
1305 Guillermo Garces AerSale/XTRA Airways Male 9365 5760 0:41:39
20241 Robert Dennard AerSale/XTRA Airways Male 10170 6110 0:43:31
1301 Andrea Coatney AerSale/XTRA Airways Female 10683 4339 0:44:54
1293 Carlos Aleman AerSale/XTRA Airways Male 11127 6501 0:46:11
20272 Maria Uz AerSale/XTRA Airways Female 11179 4642 0:46:25
20270 Kathrine Thunem AerSale/XTRA Airways Female 11183 4645 0:46:25
20266 Javier Rosales AerSale/XTRA Airways Male 11466 6644 0:47:21
1323 Christina Rivera AerSale/XTRA Airways Female 11745 4972 0:48:09
20269 Matt Stoehr AerSale/XTRA Airways Male 12053 6855 0:49:13
20233 Maria Alvarez AerSale/XTRA Airways Female 12414 5407 0:50:25
20250 Maria Del Pilar Granobles AerSale/XTRA Airways Female 12577 5506 0:50:57
20252 Amanda Jones AerSale/XTRA Airways Female 13127 5881 0:52:55
1327 Jose Silva AerSale/XTRA Airways Male 14105 7556 0:56:10
20268 Luis San Martin AerSale/XTRA Airways Male 14241 7608 0:56:37
1296 Maria Benitez AerSale/XTRA Airways Female 14471 6773 0:57:22
20255 Maria Largaespada AerSale/XTRA Airways Female 14476 6775 0:57:23
20239 Amanda Campos AerSale/XTRA Airways Female 14480 6779 0:57:23
20249 Josue Gonzalez AerSale/XTRA Airways Male 14488 7686 0:57:25
20259 Vanessa Machado AerSale/XTRA Airways Female 14705 6943 0:58:04
20271 Paula Tobon AerSale/XTRA Airways Female 14716 6951 0:58:06
20263 Mia Qin AerSale/XTRA Airways Female 15609 7594 1:01:28
20254 Hari Kisten AerSale/XTRA Airways Male 15611 7997 1:01:29
1295 Brian Daggett AerSale/XTRA Airways Male 15617 7998 1:01:30
20243 Jorge Espinosa AerSale/XTRA Airways Male 15619 7999 1:01:30
20258 Yilian Lozano AerSale/XTRA Airways Female 15893 7808 1:02:39
1314 Carolina Quiel AerSale/XTRA Airways Female 15905 7820 1:02:41
20232 Brian Addis AerSale/XTRA Airways Male 16058 8106 1:03:20
20246 Christian Garcia AerSale/XTRA Airways Male 16068 8113 1:03:23
20234 Luis Andoro AerSale/XTRA Airways Male 16135 8142 1:03:37
20256 Ana Leon AerSale/XTRA Airways Female 16458 8202 1:04:52
20262 Laura Portela AerSale/XTRA Airways Female 16651 8351 1:05:40
20264 Iskra Reyes AerSale/XTRA Airways Female 16676 8370 1:05:51
20251 Claudia Hernandez AerSale/XTRA Airways Female 17266 8797 1:08:15
20237 Tania Badilla AerSale/XTRA Airways Female 17534 8988 1:09:41
20240 Kenyel Cruz AerSale/XTRA Airways Female 17658 9075 1:10:27
18122 Kendrika Ratcliffe AFCEA South Florida Female 2906 667 0:29:56
18125 Renata Bagley AFCEA South Florida Female 6978 2364 0:36:54
18124 Nefertiti Joseph AFCEA South Florida Female 6986 2369 0:36:54
17838 Reginald Keitt AFCEA South Florida Male 8659 5432 0:40:08
18123 Larissa Pillay AFCEA South Florida Female 8803 3295 0:40:25
18126 Claudia Tapia AFCEA South Florida Female 8816 3305 0:40:27
18120 Jeremy Spund AFCEA South Florida Male 11692 6740 0:47:59
6 Ed Daugherty Affinity/IntellaPro Male 652 562 0:24:32
1344 Juan Garces Affinity/IntellaPro Male 1765 1419 0:27:38
1343 Jason Farbman Affinity/IntellaPro Male 3423 2583 0:30:47
1345 Zinaida Georgiev Affinity/IntellaPro Female 4327 1188 0:32:15
1349 Bianca Pastor Affinity/IntellaPro Female 4887 1413 0:33:20
1347 Sean Mahabir Affinity/IntellaPro Male 6023 4096 0:35:10
1350 Benito Pellerano Affinity/IntellaPro Male 8571 5389 0:40:00
1346 Veronica Gonzalez Affinity/IntellaPro Female 8643 3209 0:40:07
1342 Tim Daugherty Affinity/IntellaPro Male 10121 6087 0:43:24
1358 Francis Hawley AG REAL ESTATE ADVISORS Male 2622 2035 0:29:24
1361 Yulia Vargas AG REAL ESTATE ADVISORS Female 6283 2046 0:35:38
1359 Marise Nobrega AG REAL ESTATE ADVISORS Female 6298 2055 0:35:39
1360 Fabiano Tocantins AG REAL ESTATE ADVISORS Male 6587 4398 0:36:11
1357 Andres Noy AG REAL ESTATE ADVISORS Male 6618 4413 0:36:15
1354 Carlos Chavarro AG REAL ESTATE ADVISORS Male 8161 5207 0:39:07
20277 Marcello Agostini AG REAL ESTATE ADVISORS Male 9357 5755 0:41:37
1353 Rossana Burgos AG REAL ESTATE ADVISORS Female 9364 3593 0:41:38
20281 Lulu Gutierrez AG REAL ESTATE ADVISORS Female 10340 4141 0:43:57
1356 Liza Dieppa AG REAL ESTATE ADVISORS Female 11203 4657 0:46:29
20276 Flavia Agostini AG REAL ESTATE ADVISORS Female 13586 6190 0:54:30
20284 Adriana Spielkamp AG REAL ESTATE ADVISORS Female 13592 6195 0:54:30
20280 Rodrigo Gomez AG REAL ESTATE ADVISORS Male 13602 7382 0:54:32
1364 Sandra Brazzoduro AIC Hotel Group Female 948 158 0:25:35
1365 Amanda Carlow AIC Hotel Group Female 1646 308 0:27:22
1374 Erik Van Bilderbeek AIC Hotel Group Male 3218 2445 0:30:28
1362 La Arias AIC Hotel Group Female 4074 1083 0:31:49
1368 Michelle Farinas AIC Hotel Group Female 5068 1489 0:33:37
1373 Rubi Ramos AIC Hotel Group Female 5557 1699 0:34:24
1369 Carilis Felipe AIC Hotel Group Female 6194 2001 0:35:28
1363 Bibiana Barrios AIC Hotel Group Female 6363 2077 0:35:47
20289 Cinthya Lander AIC Hotel Group Female 9184 3495 0:41:14
1371 Ashley Mcneer AIC Hotel Group Female 9537 3689 0:42:02
1367 Sandy Cisneros AIC Hotel Group Female 11490 4823 0:47:25
1370 Natalie Machado AIC Hotel Group Female 11548 4856 0:47:32
20290 Yesenia Lopez AIC Hotel Group Female 16864 8507 1:06:40
20286 Paula Aguila AIC Hotel Group Female 16881 8520 1:06:42
20287 Lorena Cardenas AIC Hotel Group Female 16882 8521 1:06:42
1376 Wilhelm Janse Van Rensburg AIG Male 348 316 0:23:04
1375 Carlos Bullos AIG Male 2337 1843 0:28:49
1378 Freddy Velasco AIG Male 2527 1974 0:29:14
1377 Daniel Liy AIG Male 2603 2023 0:29:22
1383 Kathryn Goldberger Akerman Female 679 93 0:24:40
1387 Sergey Kotelnikov Akerman Male 5041 3551 0:33:34
1393 Laurie Weinstein Akerman Female 6332 2068 0:35:43
1390 Arturo Perea Akerman Male 10428 6224 0:44:15
1381 Jason Brown Akerman Male 10445 6231 0:44:18
20296 Francisco Herrera Akerman Male 15077 7856 0:59:24
1388 Merari Motola Akerman Female 15086 7209 0:59:26
20292 Tracey Ashton Akerman Female 16197 8013 1:03:51
20301 Gisselle Nevot Akerman Female 16199 8015 1:03:51
20305 Vickie Zotos Akerman Female 16611 8319 1:05:30
20295 Sandra Brown Akerman Female 16870 8512 1:06:40
20303 Laura Seigel Akerman Female 16876 8517 1:06:41
20297 Marylin Herrera Akerman Female 18000 9307 1:13:21
1399 Riad Gatte Albizu University Male 2881 2221 0:29:53
1400 Jesus Maestre suarez Albizu University Male 3215 2442 0:30:28
20310 Judy Brid Albizu University Female 6123 1969 0:35:20
1395 Thomas Alegria Albizu University Male 7053 4646 0:37:03
1405 Isaac Tourgeman Albizu University Male 8301 5274 0:39:26
1401 Silvia Marenco Albizu University Female 8502 3137 0:39:50
1402 Maria Alonso Mahoney Maria Alonso Mahoney Albizu University Female 12865 5693 0:51:55
20318 Francia Espinosa Albizu University Female 13011 5802 0:52:25
20326 Dayanes Rodriguez Albizu University Female 13026 5813 0:52:28
1404 Maria Torres Albizu University Female 13042 5825 0:52:31
20312 Estrella Campos Albizu University Female 13491 6129 0:54:11
20329 Rafael Vasquez Albizu University Male 14154 7574 0:56:19
20320 Gabriela Fontan Albizu University Female 14170 6571 0:56:22
1396 Mercy Arias Albizu University Female 14561 6834 0:57:38
1398 Ailema Frigerio Albizu University Female 14577 6846 0:57:41
20316 Brittney Davis Albizu University Female 15438 7469 1:00:52
20325 Jose Morales Albizu University Male 15446 7950 1:00:53
20313 Chantel Caraza-Garcia Albizu University Female 16292 8090 1:04:12
20330 Gustavo Vilchez Albizu University Male 17094 8407 1:07:30
20307 Dania Aguilar Albizu University Female 17096 8668 1:07:30
20323 Rafael Martinez Albizu University Male 17098 8409 1:07:30
20315 Lidia Colon Albizu University Female 17151 8706 1:07:45
20317 Marlene Egusquiza Albizu University Female 17162 8716 1:07:48
20322 Robyn Lyn Albizu University Female 17166 8719 1:07:50
20311 Margarita Caballero Albizu University Female 17168 8721 1:07:51
20319 Sheri Feldman Albizu University Female 18361 9570 1:20:02
20314 Maryvelisse Carpintero Albizu University Female 18363 9571 1:20:04
1414 Luis Lasa ALG Male 983 813 0:25:41
1417 Daniel Stevens ALG Male 4130 3013 0:31:55
1413 David Krempa ALG Male 4621 3315 0:32:50
1418 Cyndiann Willoughby ALG Female 10434 4196 0:44:16
1412 Glendys Huertas ALG Female 10442 4200 0:44:17
1416 Gladys Pompa ALG Female 16596 8306 1:05:26
1419 Tomas Kenney Allied World Re Male 314 285 0:22:52
1422 William Turkel Allied World Re Male 5793 3976 0:34:44
1420 Martha Turkel Allied World Re Female 5815 1815 0:34:46
1434 Luke Roberts Alma DDB Male 1060 877 0:25:53
1429 Jose Hawayek Alma DDB Male 1102 912 0:26:00
1425 Alexandra Blasser Alma DDB Female 1126 192 0:26:05
1437 Meg Valls Alma DDB Female 1226 212 0:26:24
1436 Tania Sanjurjo Alma DDB Female 2473 528 0:29:07
1431 Leo Peet Alma DDB Male 2744 2120 0:29:37
1428 Solana Froment Alma DDB Female 2894 659 0:29:54
1435 Claudia Rodriguez Alma DDB Female 2981 691 0:30:02
1424 Cristina Azanza Alma DDB Female 3790 972 0:31:22
1430 Jackie Nathan Alma DDB Female 4826 1385 0:33:14
1432 Jennifer Rangel Alma DDB Female 7615 2666 0:38:05
1433 Carolina Rendon Alma DDB Female 7847 2782 0:38:30
1426 Candy Cabrera Alma DDB Female 9023 3405 0:40:54
20335 Laura Marrero Alma DDB Female 9655 3759 0:42:20
20333 Jacqueline Bofill Alma DDB Female 9667 3767 0:42:22
20332 Ana Banos Alma DDB Female 12405 5403 0:50:22
20336 Diamora Ripepi Alma DDB Female 13199 5929 0:53:12
20334 Manuela Graells Alma DDB Female 13220 5942 0:53:15
20337 Mark Edwards Almazan Law Male 1028 850 0:25:48
1438 Alexander Almazan Almazan Law Male 1648 1334 0:27:23
1444 Lianet Rodriguez Almazan Law Female 2762 620 0:29:40
1445 Jennise Rodriguez Almazan Law Female 6620 2196 0:36:15
1443 Laura Melendez Almazan Law Female 7869 2799 0:38:33
1442 Andy Garcia Almazan Law Male 7887 5068 0:38:36
20340 Vanessa Pellot Almazan Law Female 7888 2808 0:38:36
1439 Danielle Almazan Almazan Law Female 7894 2813 0:38:36
1440 Isabella Caproni Almazan Law Female 7980 2858 0:38:46
1441 Lisandra Don Almazan Law Female 17446 8922 1:09:14
20338 Sonia Garcia Almazan Law Female 17452 8927 1:09:16
20339 Jeniffer Gonzalez Almazan Law Female 18221 9470 1:16:16
1466 Blessing Taruza ALPS Male 406 361 0:23:26
1446 Joshua Altchek ALPS Male 960 796 0:25:37
1451 Harry Gomez ALPS Male 1056 874 0:25:52
1448 Antonio Berlingeri ALPS Male 1900 1523 0:27:56
1461 Robert Munoz ALPS Male 2325 1831 0:28:48
1467 Matt Turitz ALPS Male 2335 1841 0:28:49
1459 Eric Mello ALPS Male 2342 1848 0:28:50
1464 Alejandra Ochoa ALPS Female 3485 864 0:30:53
1463 Lee Neville ALPS Male 3972 2924 0:31:38
1449 Maria Alexandra Broderick ALPS Female 3999 1057 0:31:41
1458 Luke Mangiameli ALPS Male 4147 3027 0:31:57
1454 Matthew Heller ALPS Male 4221 3065 0:32:04
1456 Alejandro Lozano ALPS Male 4247 3082 0:32:07
1462 Adhemar Najar ALPS Male 6157 4161 0:35:24
1460 Travis Marciano ALPS Male 6716 4468 0:36:25
1465 Gregory Salas Lathuillerie ALPS Male 6848 4536 0:36:39
1452 Nichol Gomez ALPS Male 7133 4684 0:37:11
1447 Juan Angel ALPS Male 7332 4792 0:37:35
1455 Maria Jenkins ALPS Female 7566 2644 0:38:01
1468 Anastasia Vorontsova ALPS Female 7794 2754 0:38:24
1450 Scott Budner ALPS Male 8651 5428 0:40:08
20341 Jonathan Senk ALPS Male 16152 8151 1:03:41
1474 Alex Suarez Alsco Inc Male 869 731 0:25:22
1471 Luis Ricardo Alsco Inc Male 4136 3018 0:31:55
1475 Nestor Vargas Alsco Inc Male 8281 5264 0:39:23
1470 Francheska Handal Alsco Inc Female 14498 6789 0:57:27
1472 Ernesto Lorenzo Alsco Inc Male 14499 7691 0:57:27
20343 Sheratha Carter Alsco Inc Female 16521 8252 1:05:07
20345 Caroline Doura Alsco Inc Female 16565 8284 1:05:18
20347 Michael Lebrun Alsco Inc Male 17588 8544 1:09:59
1480 Drew Harlow AltaReturn Male 1522 1233 0:27:07
1477 Yaymicel Cheung AltaReturn Male 3581 2676 0:31:02
1479 Luis Cruz AltaReturn Male 3879 2867 0:31:31
1482 Steve Jimenez AltaReturn Male 4241 3079 0:32:07
1489 Manuel Villavicencio AltaReturn Male 4524 3259 0:32:39
1485 Ernesto Leon AltaReturn Male 4940 3494 0:33:24
1071 Yan Dubin AltaReturn Male 5431 3777 0:34:13
1488 Ryan Stewart AltaReturn Male 5442 3785 0:34:14
1476 Ashwin Advani AltaReturn Male 6361 4274 0:35:47
1484 Nicole La AltaReturn Female 7034 2388 0:37:00
1487 Guillermo Rojas AltaReturn Male 8096 5173 0:38:59
1483 Kozma Kumani AltaReturn Male 8895 5539 0:40:36
1478 Juan Conrado AltaReturn Male 9294 5724 0:41:27
1065 Alvaro Peralta AltaReturn Male 9453 5800 0:41:51
1481 Jack Hu AltaReturn Male 10048 6055 0:43:11
20351 Juliaan La Valette AltaReturn Male 11082 6480 0:46:02
13774 Priya Theru AltaReturn Female 11950 5107 0:48:54
20349 Anna Brown AltaReturn Female 12334 5362 0:50:07
20352 Amanda Nateram AltaReturn Female 12446 5427 0:50:34
1486 Melissa Mari AltaReturn Female 12469 5440 0:50:37
1493 Thomas Falkner Alvarez & Marsal Male 3734 2774 0:31:16
1492 Elyssa Falkner Alvarez & Marsal Female 3735 954 0:31:16
1494 Cassandra Fernandez Alvarez & Marsal Female 10913 4487 0:45:34
1501 Gregory Hernandez Alvarez Arrieta & Diaz-Silveira Male 3313 2510 0:30:38
1499 Paula Buzzi Alvarez Arrieta & Diaz-Silveira Female 3504 870 0:30:55
1502 Lauren Hunt Alvarez Arrieta & Diaz-Silveira Female 9106 3448 0:41:05
1505 Jon Ellison AMADEUS Global Operations Americas Inc. Male 448 396 0:23:40
1510 Patrick Nugues AMADEUS Global Operations Americas Inc. Male 1712 1382 0:27:31
1516 Stan Sellar AMADEUS Global Operations Americas Inc. Male 1939 1552 0:28:00
1511 Juergen Pidhorjanskyi AMADEUS Global Operations Americas Inc. Male 1984 1588 0:28:06
1513 Jose Reyes AMADEUS Global Operations Americas Inc. Male 2100 1674 0:28:23
1509 Kieran Mcgettigan AMADEUS Global Operations Americas Inc. Male 2178 1732 0:28:31
1517 Zolton Williams AMADEUS Global Operations Americas Inc. Male 4026 2953 0:31:43
1515 Nick Sellar AMADEUS Global Operations Americas Inc. Male 6347 4266 0:35:45
1508 David Leal AMADEUS Global Operations Americas Inc. Male 6482 4342 0:35:59
1506 Travis Forte AMADEUS Global Operations Americas Inc. Male 7365 4809 0:37:39
1507 Leonardo Juarbe AMADEUS Global Operations Americas Inc. Male 7373 4814 0:37:40
1512 Ariann Redmond AMADEUS Global Operations Americas Inc. Female 8855 3324 0:40:32
1503 Raul Bethancourt AMADEUS Global Operations Americas Inc. Male 8987 5586 0:40:51
1518 Joshua Zenoz AMADEUS Global Operations Americas Inc. Male 9890 5981 0:42:51
1504 Deborah Bobbio AMADEUS Global Operations Americas Inc. Female 10116 4018 0:43:23
20357 Clemencia Ayala AMADEUS Global Operations Americas Inc. Female 15351 7407 1:00:29
20358 Leila Farquharson AMADEUS Global Operations Americas Inc. Female 15378 7428 1:00:36
1522 Daniel Lares AMC Networks Latin America LLC Male 3230 2455 0:30:30
1528 Vilma Otazo AMC Networks Latin America LLC Female 5013 1471 0:33:31
1526 Silvia Lucero AMC Networks Latin America LLC Female 7440 2577 0:37:47
1519 Taymara Aguila AMC Networks Latin America LLC Female 11978 5130 0:49:00
1523 Bruna Leite AMC Networks Latin America LLC Female 12452 5429 0:50:35
1530 Feliciti Suarez AMC Networks Latin America LLC Female 13504 6137 0:54:13
1520 Raul Barrera AMC Networks Latin America LLC Male 13509 7351 0:54:14
20366 Mariella Saavedra AMC Networks Latin America LLC Female 14975 7137 0:58:58
1527 Yulyana Mejia AMC Networks Latin America LLC Female 14987 7143 0:58:59
20360 Maria Caldera AMC Networks Latin America LLC Female 14996 7152 0:59:01
20365 Nubia Rodriguez AMC Networks Latin America LLC Female 16580 8296 1:05:22
20368 Elisabete Schaffler AMC Networks Latin America LLC Female 17639 9059 1:10:21
20362 Moraima Cortes AMC Networks Latin America LLC Female 17641 9061 1:10:21
20367 Gladys Sans AMC Networks Latin America LLC Female 17646 9066 1:10:23
20361 Marta Castillo AMC Networks Latin America LLC Female 17651 9070 1:10:26
20364 Maria Minoprio AMC Networks Latin America LLC Female 17889 9229 1:12:14
1534 Marcelo Pichardo Amec Foster Wheeler Male 24 23 0:19:05
20374 Ricardo Fraxedas Amec Foster Wheeler Male 769 655 0:25:00
1537 Paul Thornbury Amec Foster Wheeler Male 5008 3531 0:33:31
1536 David Soler Amec Foster Wheeler Male 6369 4279 0:35:48
1531 Philip Hammer Amec Foster Wheeler Male 6371 4280 0:35:48
1533 Santiago Jimenez Amec Foster Wheeler Male 9317 5735 0:41:32
1532 Armando Hernandez Amec Foster Wheeler Male 12413 6990 0:50:25
20375 Karolyna Sotes Amec Foster Wheeler Female 13418 6080 0:53:59
20372 Mark Kearns Amec Foster Wheeler Male 13419 7322 0:53:59
20373 Jacqueline Perez Amec Foster Wheeler Female 13479 6120 0:54:09
1535 Melissa Santiesteban Amec Foster Wheeler Female 13482 6121 0:54:09
1547 Michael Jankowski American Airlines Male 409 363 0:23:27
1544 Pedro Gomez American Airlines Male 1350 1096 0:26:42
1543 Leonard Gerling American Airlines Male 3296 2501 0:30:36
1553 Darren Mcdaniel American Airlines Male 3680 2740 0:31:11
1545 Greggory Holman American Airlines Male 3989 2932 0:31:40
1549 Marisol Lopez American Airlines Female 4747 1350 0:33:05
1558 Yannik Suro-Nigo American Airlines Male 6400 4294 0:35:51
1556 Juan Munera American Airlines Male 7192 4719 0:37:19
20380 Leyla Mejia American Airlines Female 7758 2741 0:38:22
1542 Suzanna Eads American Airlines Female 7814 2768 0:38:27
20376 Sarah Armstrong American Airlines Female 8290 3010 0:39:25
1559 Robin Weis American Airlines Male 8300 5273 0:39:26
1551 Humberto Magana American Airlines Male 8350 5296 0:39:32
1546 Moses Idiaquez American Airlines Male 9359 5757 0:41:38
1539 Luis Barragan American Airlines Male 9361 5758 0:41:38
1540 Louis Conte American Airlines Male 9581 5855 0:42:08
1554 Ramon Morales American Airlines Male 9631 5876 0:42:15
1555 Marta Morales American Airlines Female 9632 3744 0:42:15
1550 Scott Lyons American Airlines Male 9633 5877 0:42:15
20382 Jeannette Rodriguez American Airlines Female 10497 4236 0:44:25
20377 Maritza Evans American Airlines Female 10565 4278 0:44:34
1538 Omar Alvarez American Airlines Male 10568 6275 0:44:34
1548 Yoel Linares American Airlines Male 11136 6504 0:46:13
1541 Brie Conte American Airlines Female 12247 5307 0:49:51
20379 Paul Mejia American Airlines Male 13174 7246 0:53:09
20381 Antonio Quezada American Airlines Male 13178 7247 0:53:09
28410 Patti Evers American Airlines Female 14069 6512 0:56:01
1552 Mauricio Matamoros American Airlines Male 15024 7834 0:59:10
1575 Jose Hernandez American Bancshares Mortgage Male 302 273 0:22:48
1574 Melvin Guerrero American Bancshares Mortgage Male 453 401 0:23:41
1573 Gage Green American Bancshares Mortgage Male 592 512 0:24:16
1584 Angad Singh American Bancshares Mortgage Male 2097 1676 0:28:23
1561 Edward Angulo American Bancshares Mortgage Male 2330 1836 0:28:49
8 John Cosculluela American Bancshares Mortgage Male 3078 2343 0:30:13
1587 Andru Vergara American Bancshares Mortgage Male 4014 2946 0:31:42
1586 Janell Vega American Bancshares Mortgage Female 4210 1140 0:32:03
1568 Gina Cosculluela American Bancshares Mortgage Female 4638 1304 0:32:52
1578 Alvaro Montiel American Bancshares Mortgage Male 5307 3709 0:34:01
1567 Anaisse Conde Gomez American Bancshares Mortgage Female 5753 1786 0:34:41
1563 Francisco Zepeda-Campos American Bancshares Mortgage Male 6438 4315 0:35:55
1570 Alexander Estevan American Bancshares Mortgage Male 7235 4743 0:37:23
20390 Oscar Cuervo American Bancshares Mortgage Male 8095 5172 0:38:58
1588 Misael Viera American Bancshares Mortgage Male 8137 5194 0:39:04
1576 Vilma Hernandez American Bancshares Mortgage Female 8471 3118 0:39:47
1562 Maynon Arauz American Bancshares Mortgage Male 10650 6315 0:44:49
1581 Mario Pereira American Bancshares Mortgage Male 11333 6586 0:46:58
1560 Cosette Alves American Bancshares Mortgage Female 13575 6184 0:54:26
1583 Glenn Sellan American Bancshares Mortgage Male 13916 7485 0:55:27
1565 Maria Cao American Bancshares Mortgage Female 13925 6419 0:55:28
1569 Mary Espinosa American Bancshares Mortgage Female 15588 7574 1:01:24
1585 Jessica Valdes American Bancshares Mortgage Female 15591 7577 1:01:24
20389 Shannon Corinti American Bancshares Mortgage Female 15989 7881 1:03:01
20423 Monqiue Smith American Bancshares Mortgage Female 15994 7886 1:03:03
20422 Daniel Simone American Bancshares Mortgage Male 17557 8533 1:09:52
20387 Alberto Cobo American Bancshares Mortgage Male 17558 8534 1:09:52
20388 Sandra Cobo American Bancshares Mortgage Female 17568 9010 1:09:56
20398 Benny Garcia American Bancshares Mortgage Male 17597 8549 1:10:02
20416 David Perdomo American Bancshares Mortgage Male 17599 8551 1:10:02
1564 Abelardo Bastori American Bancshares Mortgage Male 17600 8552 1:10:02
20385 Kathy Britts American Bancshares Mortgage Female 18021 9326 1:13:41
20393 Denise Drews American Bancshares Mortgage Female 18024 9328 1:13:41
1591 Torre Taylor American Global Female 4708 1331 0:33:00
1589 Hazel Torres American Global Female 11953 5109 0:48:54
20429 Berta Abedi American Global Female 14691 6933 0:58:02
1600 Adrien Rothe Americaribe Inc Male 243 225 0:22:26
1594 Emmanuel Busnel Americaribe Inc Male 395 353 0:23:23
1601 Zharel Silva Americaribe Inc Male 1624 1318 0:27:19
1595 Alexandre Ducamp Americaribe Inc Male 2562 1998 0:29:17
1602 Montfort Stephane Americaribe Inc Male 4273 3101 0:32:10
1064 Amanda Boulin Americaribe Inc Female 5777 1799 0:34:43
1597 Jorge Gutierrez Americaribe Inc Male 6523 4363 0:36:04
1598 Diego Herrera Americaribe Inc Male 7447 4856 0:37:48
1599 Louise Reperant Americaribe Inc Female 8318 3023 0:39:28
1596 Zhenia Fabra Estefan Americaribe Inc Female 9146 3471 0:41:10
20437 Frederic Pasquet Americaribe Inc Male 10579 6280 0:44:36
20435 David Marmasse Americaribe Inc Male 11794 6775 0:48:21
20432 Laura Doctor Americaribe Inc Female 15649 7623 1:01:40
20438 Rosalie Shirley Americaribe Inc Female 15650 7624 1:01:40
1603 Chris Van Rooyen Americaribe Inc Male 15936 8078 1:02:47
20433 Joe Folco Americaribe Inc Male 16090 8122 1:03:27
20434 Lilian Lima Americaribe Inc Female 16389 8153 1:04:36
20431 Jonathan Caacbay Americaribe Inc Male 16395 8220 1:04:36
1592 Natalia Arranz Americaribe Inc Female 16410 8164 1:04:39
1615 Joseph Maca Amicon Construction Male 115 106 0:21:14
1623 Marco Ramos Amicon Construction Male 321 292 0:22:54
1631 Jonathan Weislow Amicon Construction Male 1506 1221 0:27:05
1616 Jim Meyer Amicon Construction Male 2011 1611 0:28:10
1606 Charles Barattini Amicon Construction Male 2138 1705 0:28:27
1609 Corina Castellano Amicon Construction Female 3532 884 0:30:56
1607 Cristian Betancurt Amicon Construction Male 3673 2735 0:31:10
1620 Alejandro Pages Amicon Construction Male 4399 3172 0:32:23
1621 Julian Perez Amicon Construction Male 4474 3220 0:32:33
1612 Benjamin Garcia Amicon Construction Male 5276 3695 0:33:58
1626 Eli Salazar Amicon Construction Male 5835 4001 0:34:49
1617 Aj Mueller Amicon Construction Male 6494 4349 0:36:01
1622 Jp Perez Amicon Construction Male 7485 4878 0:37:53
1605 Ximena Aguirre Amicon Construction Female 7886 2807 0:38:36
1618 Gerardo Murzi Amicon Construction Male 8135 5192 0:39:04
1608 Hector Castaneda Amicon Construction Male 8329 5290 0:39:30
1632 John Wood Amicon Construction Male 8519 5364 0:39:52
1604 Ross Adickman Amicon Construction Male 8963 5573 0:40:48
1614 Robert Henriques Amicon Construction Male 8978 5579 0:40:50
1619 Sara Oviedo Amicon Construction Female 9327 3576 0:41:33
1630 Terrell Walden Amicon Construction Male 11232 6544 0:46:35
1628 Bill Steinmetz Amicon Construction Male 11352 6593 0:47:01
1629 Sabrina Valdivieso Amicon Construction Female 11383 4762 0:47:07
1611 Codi Funakoshi Amicon Construction Female 11467 4809 0:47:21
1627 Robert Spataro Amicon Construction Male 13956 7499 0:55:34
1613 Ramses Ghanem Amicon Construction Male 15006 7830 0:59:04
1624 Jay Richmond Amicon Construction Male 15008 7831 0:59:04
1610 Ena Diaz Amicon Construction Female 15075 7201 0:59:24
20439 Diane Balseiro Amicon Construction Female 15082 7206 0:59:26
1634 Leopoldo Carrera Andean Sun Produce Male 791 671 0:25:05
1633 Marco Amador Frieri Andean Sun Produce Male 838 706 0:25:16
1635 Julian Castano Andean Sun Produce Male 5363 3738 0:34:06
20443 Ani Lopez Andean Sun Produce Female 8625 3199 0:40:05
1638 Rodger Shay Anthem Bank and Trust Male 773 658 0:25:01
20444 Emelina Echazarreta Anthem Bank and Trust Female 5575 1708 0:34:26
1636 Ericka Quevedo Anthem Bank and Trust Female 12565 5497 0:50:55
1643 Jose Pagan Ii Antonio Pagan Male 123 114 0:21:19
1641 Brian Gonzalez Antonio Pagan Male 390 348 0:23:21
1639 Lydia Domenech Antonio Pagan Female 3117 740 0:30:17
1642 Friederike Hertwig Antonio Pagan Female 4216 1145 0:32:04
1640 Alejandro Funes Antonio Pagan Male 11003 6456 0:45:50
20445 Hector Gonzalez Antonio Pagan Male 11390 6612 0:47:09
1684 Nolan Wilson Aon Risk Solutions Male 146 134 0:21:31
1668 Max Maggio Aon Risk Solutions Male 367 330 0:23:11
1681 Pamela Shimono Aon Risk Solutions Female 417 47 0:23:30
1675 Omar Morales Aon Risk Solutions Male 563 486 0:24:07
1657 Conor Flynn Aon Risk Solutions Male 836 704 0:25:16
1664 Adam Lickstein Aon Risk Solutions Male 841 709 0:25:17
1656 Brenton De faria Aon Risk Solutions Male 1114 921 0:26:03
1665 Andrew Little Aon Risk Solutions Male 1213 999 0:26:22
1671 Raymond Mazzocco Aon Risk Solutions Male 1392 1132 0:26:48
1670 Clifford Mawn Aon Risk Solutions Male 1816 1458 0:27:45
1652 Jose Bigio Aon Risk Solutions Male 1876 1504 0:27:52
1682 Ulisses Soares Aon Risk Solutions Male 1983 1587 0:28:05
1653 Jake Byrne Aon Risk Solutions Male 2167 1727 0:28:30
1674 Milena Milani Aon Risk Solutions Female 2179 441 0:28:31
1660 Adriana Gonzalez Aon Risk Solutions Female 3272 779 0:30:34
1672 Philip Mcintosh Aon Risk Solutions Male 3805 2820 0:31:23
1669 Alejandro Marmorek Aon Risk Solutions Male 4313 3124 0:32:14
1667 Tina Luque Aon Risk Solutions Female 4670 1317 0:32:56
20451 Keith Espinoza Aon Risk Solutions Male 4797 3415 0:33:10
1676 Camila Paris Aon Risk Solutions Female 6393 2090 0:35:50
1662 Ni Hamad Aon Risk Solutions Female 6915 2339 0:36:47
1649 Scott Allman Aon Risk Solutions Male 7577 4916 0:38:02
20455 Richard Kaufman Aon Risk Solutions Male 7914 5080 0:38:38
1651 Yanella Besu Aon Risk Solutions Female 8691 3229 0:40:12
20467 Devin Ward Aon Risk Solutions Male 12186 6906 0:49:40
20459 Gustavo Muniz Aon Risk Solutions Male 12891 7162 0:51:59
20468 Brenda Weaver Aon Risk Solutions Female 16345 8124 1:04:24
20463 Rene Samayoa Aon Risk Solutions Male 16356 8206 1:04:26
1680 Luann Sanandres Aon Risk Solutions Female 17231 8768 1:08:06
20452 Ileana Galindo Aon Risk Solutions Female 17252 8784 1:08:13
1655 Kristin Daly Aon Risk Solutions Female 17257 8788 1:08:13
20465 Tara Travieso Aon Risk Solutions Female 17263 8794 1:08:14
20464 Harry Tejeda Aon Risk Solutions Male 17366 8475 1:08:47
1663 Patrick Kelly Aon Risk Solutions Male 17377 8479 1:08:52
20456 Cy Kondrick Aon Risk Solutions Male 17379 8480 1:08:53
1658 Jorge Gale Aon Risk Solutions Male 17795 8613 1:11:29
1650 Julie Bennett Aon Risk Solutions Female 17796 9163 1:11:30
20461 Giavanna Perry Aon Risk Solutions Female 17801 9167 1:11:33
1673 Gema Milanes Aon Risk Solutions Female 17803 9169 1:11:33
20476 Elsy Pineda APL LOGISTICS Female 8262 2993 0:39:21
1692 Helder Toledo APL LOGISTICS Male 9696 5902 0:42:26
1693 Ivan Vasco APL LOGISTICS Male 11634 6716 0:47:48
20469 Valentina Agudo APL LOGISTICS Female 13942 6432 0:55:30
20470 Mario Castro APL LOGISTICS Male 15286 7911 1:00:15
20473 Caitlin Hensler APL LOGISTICS Female 15369 7419 1:00:34
20471 Amette Delgado APL LOGISTICS Female 15388 7434 1:00:37
20477 Annia Ponce De Leon APL LOGISTICS Female 15389 7435 1:00:37
20472 Sissy Espinoza APL LOGISTICS Female 16939 8560 1:06:56
1686 Monica Escobedo APL LOGISTICS Female 17062 8646 1:07:25
1685 Pierre Castro APL LOGISTICS Male 17077 8401 1:07:27
20474 Carmen Kaminer APL LOGISTICS Female 17361 8868 1:08:44
1694 Anthony Zibilich APL LOGISTICS Male 17369 8476 1:08:47
20478 Luis Ramos Azuaje APL LOGISTICS Male 17700 8579 1:10:50
1690 Victor Nunez APL LOGISTICS Male 17724 8588 1:10:56
20475 Michelle Krietsch APL LOGISTICS Female 17824 9177 1:11:42
1688 Alexander Mac Lennan APL LOGISTICS Male 18053 8685 1:14:15
1702 Mark Mccaugherty Apollo Aviation Group Male 511 445 0:23:53
20487 Steve Burton Apollo Aviation Group Male 1682 1359 0:27:26
1706 Sabina Zhornitsky Apollo Aviation Group Female 2088 416 0:28:22
1704 Jordan Sulkin Apollo Aviation Group Male 2137 1704 0:28:27
20484 Stefan Iacono Apollo Aviation Group Male 2517 1968 0:29:13
1700 Ilya Lipsman Apollo Aviation Group Male 2952 2262 0:30:00
1705 Elizabeth Sutherland Apollo Aviation Group Female 4102 1097 0:31:52
1695 Daniel Abreu Apollo Aviation Group Male 5247 3677 0:33:55
1697 Michael Abreu Apollo Aviation Group Male 5259 3685 0:33:56
1696 Tony Soto Apollo Aviation Group Male 5505 3821 0:34:20
1699 Tiffany Kolb Apollo Aviation Group Female 5509 1677 0:34:20
1698 Jason Avdenko Apollo Aviation Group Male 6971 4598 0:36:53
20480 Stefanie Delgado Apollo Aviation Group Female 7472 2592 0:37:51
20485 Samir Patel Apollo Aviation Group Male 9305 5730 0:41:29
1701 Donal Mc Gowan Apollo Aviation Group Male 15318 7921 1:00:24
20486 Nancy Quintana Apollo Aviation Group Female 16168 7989 1:03:46
20481 Alicia Jimenez Apollo Aviation Group Female 16186 8004 1:03:48
20483 Aleli Medina Apollo Aviation Group Female 16422 8173 1:04:42
20482 Cristina Martin Apollo Aviation Group Female 16427 8176 1:04:43
20479 Jeannie Ahmad Apollo Aviation Group Female 16429 8178 1:04:44
1709 Jorge Chen Appelrouth Farah & Co. Male 1645 1333 0:27:22
1708 Alfredo Beato Appelrouth Farah & Co. Male 3501 2626 0:30:54
1715 Brian Torres Appelrouth Farah & Co. Male 7815 5035 0:38:27
1711 Thomas Garland Appelrouth Farah & Co. Male 7890 5069 0:38:36
1713 Olga Restrepo Appelrouth Farah & Co. Female 9710 3791 0:42:28
1716 Patricia Young Appelrouth Farah & Co. Female 9721 3798 0:42:29
1712 Octavio Marrero Appelrouth Farah & Co. Male 11341 6588 0:46:59
1707 Steve Appel Appelrouth Farah & Co. Male 11520 6667 0:47:29
20493 Yasmil Quintero Appelrouth Farah & Co. Female 14242 6616 0:56:37
20494 Hope Scafe Appelrouth Farah & Co. Female 14246 6618 0:56:37
20498 Vicky Yanes Appelrouth Farah & Co. Female 14274 6641 0:56:42
1717 Maria Palomeque AppleOne Miami Female 6206 2006 0:35:29
20499 Calvina Hinds AppleOne Miami Female 8346 3040 0:39:31
20500 Leonor Preciado AppleOne Miami Female 15819 7753 1:02:22
20501 Andrea Troconis AppleOne Miami Female 15820 7754 1:02:22
1718 Misael Gongora Aran Eye Associates Male 6782 4503 0:36:33
1720 Anabel Sousa Aran Eye Associates Female 12530 5476 0:50:49
20502 Zoraida Martinez Aran Eye Associates Female 12773 5631 0:51:34
1748 Andre Seidenthal Areas United States Male 209 193 0:22:10
10 Xavier Rabell Areas United States Female 1151 198 0:26:10
1744 Cristina Pulley Areas United States Female 2126 425 0:28:26
1725 David Bernal Bernal Areas United States Male 2631 2040 0:29:25
1742 Nestor Prado Areas United States Male 2848 2196 0:29:49
1736 Patricia Lombillo Areas United States Female 3191 762 0:30:25
1747 Sergio Rodriguez Areas United States Male 4058 2973 0:31:47
1724 Carlos Bernal Areas United States Male 5207 3656 0:33:50
1745 Sara Rabell Areas United States Female 5209 1543 0:33:50
1740 Claudia Oliva Areas United States Female 5759 1790 0:34:41
1750 Alexis Stille Areas United States Female 6136 1976 0:35:21
1738 Daniel Munoz Areas United States Male 7681 4969 0:38:12
1735 Laur Llamas Areas United States Female 8467 3115 0:39:47
1726 Jorge Brito Areas United States Male 8690 5450 0:40:12
20509 Tong Estrada Areas United States Male 9008 5600 0:40:53
1737 Travis Morris Areas United States Male 9043 5614 0:40:57
1732 Oscar Hernandez Areas United States Male 9717 5911 0:42:29
1730 Filinto Galban Areas United States Male 9736 5917 0:42:31
1728 Marielys Diaz Areas United States Female 9740 3808 0:42:31
1743 Arlette Prats Areas United States Female 9778 3835 0:42:36
1727 Pablo Cajiao Areas United States Male 10647 6313 0:44:48
20508 Yenisel Dieppa Areas United States Female 11163 4634 0:46:20
20516 Zuleica Rios Areas United States Female 11324 4732 0:46:56
20513 Kimberly Mccall Areas United States Female 11364 4752 0:47:04
20504 Albert Alonso Areas United States Male 11366 6600 0:47:04
20515 Manuel Munoz Areas United States Male 12035 6851 0:49:10
20505 Robert Alvarez Areas United States Male 12043 6852 0:49:11
1752 Jonathan Vargas Areas United States Male 12309 6946 0:50:03
20518 Beatrice Rullan Areas United States Female 12846 5678 0:51:52
1722 Nieves Alarcon Areas United States Female 12904 5723 0:52:02
1746 Alejandro Rodriguez Areas United States Male 13003 7190 0:52:23
1731 Martha Gutierrez Areas United States Female 13708 6274 0:54:52
20514 Maria Mejia Areas United States Female 13713 6278 0:54:54
1734 Addi Lafosse Areas United States Male 15175 7880 0:59:51
20510 Johann Guerrero Areas United States Male 15177 7882 0:59:51
1733 Lourdes Izaguirre Areas United States Female 15299 7364 1:00:19
20511 Maria Labrado Areas United States Female 16323 8111 1:04:20
20517 Diana Rojas Areas United States Female 17300 8822 1:08:23
20519 Shelby Sapahgulian Areas United States Female 17827 9180 1:11:44
20506 Sofia Bodewig Areas United States Female 17830 9183 1:11:45
1749 Cary Self Areas United States Male 17838 8628 1:11:50
20507 Wah Chang Areas United States Male 17842 8630 1:11:51
1757 Santiago Lozano Ariadna Communications Group Male 1127 931 0:26:05
1754 Gustavo Garcia Ariadna Communications Group Male 1880 1507 0:27:53
20523 Daniel Ramirez Ariadna Communications Group Male 4483 3229 0:32:34
1762 Hayley Shanks Ariadna Communications Group Female 4827 1386 0:33:14
1758 Diego Parra Ariadna Communications Group Male 5947 4056 0:35:00
11 Juan Pinzon Ariadna Communications Group Male 6648 4428 0:36:18
1756 Paola Hernandez Ariadna Communications Group Female 6808 2281 0:36:35
1761 Fernando Saldarriaga Ariadna Communications Group Male 7791 5027 0:38:24
1763 Milton Vargas Ariadna Communications Group Male 9541 5838 0:42:02
1759 Monica Rldan Ariadna Communications Group Female 11885 5059 0:48:40
1760 Maria Rojas Ariadna Communications Group Female 11901 5069 0:48:44
1753 Cassiana Canale Ariadna Communications Group Female 17255 8786 1:08:13
20522 Cecilia Davit Ariadna Communications Group Female 17256 8787 1:08:13
1766 Alexander Diez Armor Correctional Health Services Male 557 481 0:24:06
1767 Manuel Fernandez Armor Correctional Health Services Male 3231 2456 0:30:30
1771 Andrea Loreto Armor Correctional Health Services Female 3528 880 0:30:56
1773 Karina Orallo Armor Correctional Health Services Female 5340 1606 0:34:03
1770 Machado Janet Armor Correctional Health Services Female 6246 2028 0:35:34
1774 Jennie Plotkin Armor Correctional Health Services Female 7308 2518 0:37:32
1775 Deborah Sanchez Armor Correctional Health Services Female 9490 3663 0:41:57
1778 Carlos Acosta Arnstein & Lehr LLP Male 125 116 0:21:19
1784 Luis Fonseca Arnstein & Lehr LLP Male 1744 1402 0:27:35
1780 Bennett Blachar Arnstein & Lehr LLP Male 2059 1643 0:28:17
1783 Oneel Duarte Arnstein & Lehr LLP Male 3865 2859 0:31:30
1788 Odalys Rivero Arnstein & Lehr LLP Female 4356 1200 0:32:18
1786 Janette Lischner Arnstein & Lehr LLP Female 8431 3088 0:39:42
1782 Luis Cifuentes Arnstein & Lehr LLP Male 8614 5410 0:40:04
20535 Jessica Johnson Arnstein & Lehr LLP Female 9749 3815 0:42:32
20541 Cristina Valles Arnstein & Lehr LLP Female 9833 3867 0:42:42
1781 Diego Camargo Arnstein & Lehr LLP Male 9904 5988 0:42:53
1789 Abbigail Webb Arnstein & Lehr LLP Female 9912 3909 0:42:55
1779 Mark Beauge Arnstein & Lehr LLP Male 11673 6732 0:47:55
1787 Francheska Periche Arnstein & Lehr LLP Female 12977 5778 0:52:19
1785 Elizabeth Gonzalez Arnstein & Lehr LLP Female 12999 5793 0:52:23
20536 Georgina Mora Arnstein & Lehr LLP Female 14906 7085 0:58:39
20543 Joeli Weidman Arnstein & Lehr LLP Female 15634 7612 1:01:34
20533 Marlise Radix Arnstein & Lehr LLP Female 15639 7616 1:01:35
1798 Jeremy Gauger Arquitectonica Male 391 349 0:23:21
1793 Earl Brown Arquitectonica Male 756 645 0:24:58
1802 Ben Hutchens Arquitectonica Male 866 728 0:25:21
1807 Geoffrey Pauwels Arquitectonica Male 1334 1086 0:26:39
1796 Timur Dincer Arquitectonica Male 1597 1292 0:27:15
1795 Anne Cotter Arquitectonica Female 2057 409 0:28:16
1809 Luis Perez Arquitectonica Male 2498 1956 0:29:11
1811 Oscar Ramirez Arquitectonica Male 2748 2123 0:29:38
1815 Shawn Tavares Arquitectonica Male 3118 2371 0:30:17
1810 Caitlin Perry Arquitectonica Female 3854 996 0:31:29
1813 Benjamin Schulte Arquitectonica Male 4319 3127 0:32:14
1797 Alvaro Donoso Arquitectonica Male 4521 3256 0:32:39
1816 Cristhian Vallejo Arquitectonica Male 5040 3550 0:33:34
1805 Princess Moquette Arquitectonica Female 6067 1936 0:35:14
1801 Ana Guaracao Arquitectonica Female 6637 2207 0:36:17
1791 Elizabeth Becerra Arquitectonica Female 6751 2254 0:36:29
1790 Paolo Arce Arquitectonica Male 7407 4833 0:37:43
1794 Kenlong Castillo Arquitectonica Male 7490 4880 0:37:53
1800 Monica Grigorescu Arquitectonica Female 7525 2624 0:37:56
1792 Stephanie Boughannam Arquitectonica Female 7613 2665 0:38:05
1804 Fernando Mane Arquitectonica Male 7880 5066 0:38:35
1817 Kirk Weng Arquitectonica Male 8711 5462 0:40:16
20544 Michelle Cintron Arquitectonica Female 9569 3707 0:42:07
1799 Elisa Gonzalez Arquitectonica Female 9685 3776 0:42:25
20546 Ana Faria Delfino Arquitectonica Female 11871 5049 0:48:37
20548 Jacob Lenard Arquitectonica Male 12475 7015 0:50:39
20545 Natalie De Los Hoyos Arquitectonica Female 12479 5446 0:50:39
1803 Xin Liu Arquitectonica Female 16818 8477 1:06:27
1818 Philip Altemus Arthur J Gallagher Risk Management Services Male 150 138 0:21:33
1823 Lorenzo Cardenas Arthur J Gallagher Risk Management Services Male 466 413 0:23:44
1836 Alexandra Tejada Arthur J Gallagher Risk Management Services Female 2591 570 0:29:21
1819 Jessica Azucena Arthur J Gallagher Risk Management Services Female 3188 761 0:30:25
1832 Jorge Martinez Arthur J Gallagher Risk Management Services Male 4310 3123 0:32:14
1829 Gabriela Gorostola Arthur J Gallagher Risk Management Services Female 4891 1415 0:33:20
1834 Joseph Pinto Arthur J Gallagher Risk Management Services Male 5546 3843 0:34:23
1830 Patrick Marlow Arthur J Gallagher Risk Management Services Male 5780 3970 0:34:43
1820 Yara Azucena Arthur J Gallagher Risk Management Services Female 5827 1822 0:34:48
1828 Jose Llop Arthur J Gallagher Risk Management Services Male 6609 4408 0:36:14
1824 Stewart Durant Arthur J Gallagher Risk Management Services Male 7055 4647 0:37:03
1825 Gregory Durant Arthur J Gallagher Risk Management Services Male 8619 5413 0:40:05
1822 Luisa Calle Arthur J Gallagher Risk Management Services Female 9701 3786 0:42:27
1827 Alexander Gomez Arthur J Gallagher Risk Management Services Male 11085 6483 0:46:02
1826 Mayte Gandulfo Arthur J Gallagher Risk Management Services Female 14728 6960 0:58:08
1833 Antonio Necuze Arthur J Gallagher Risk Management Services Male 14733 7751 0:58:09
1821 Calah Bullard Arthur J Gallagher Risk Management Services Female 14871 7064 0:58:33
1837 Lorena Vandama Arthur J Gallagher Risk Management Services Female 16466 8208 1:04:52
1835 Virginia Ramirez Arthur J Gallagher Risk Management Services Female 16538 8265 1:05:10
20550 Yaneliz Martinez Arthur J Gallagher Risk Management Services Female 18368 9574 1:20:16
1844 Juan Ramirez Arven Financial Male 5190 3645 0:33:47
1845 Meche Story Arven Financial Female 6137 1977 0:35:21
1841 Antonio Figaredo Arven Financial Male 6224 4196 0:35:32
1843 Tony Padovani Arven Financial Male 7329 4790 0:37:35
1846 Adriana Tangarife Arven Financial Female 7806 2762 0:38:26
1838 Alberto Blanco Arven Financial Male 9292 5723 0:41:27
20554 Oliver Gavidia Arven Financial Male 12131 6882 0:49:26
20555 Mayerlyng Go Arven Financial Female 12912 5730 0:52:04
20552 Mauren Atencio Arven Financial Female 15437 7468 1:00:51
1847 Kate Vargas Arven Financial Female 15477 7493 1:01:01
1840 Chuck Downs Arven Financial Male 17697 8578 1:10:47
20561 Juan Suarez Arven Financial Male 17702 8580 1:10:50